Huvudsida
METAR-TAF:

METAR-TAF

Flygplatser :

Brighton Shoreham Airport

Brighton, England

latitud: 50-50N, longitud: 000-17W, höjd: 2 m

Aktuellt väderrapport

Denna rapport gjordes för 46 minuter sedan, klockan 15:20 UTC
Vind 19 kt från nord/nordost i byarna ända upp till 30 kt
Temperatur 5°C
Fuktighet 81%
Tryck 1036 hPa
Sikt 10 km eller mer
Få moln på en höjd av 1000 ft
Spridda moln på en höjd av 2000 ft
skurar i närheten

METAR: EGKA 291520Z 02019G30KT 9999 VCSH FEW010 SCT020 05/02 Q1036

Tid: 17:06 (16:06 UTC)

Väderprognos

Denna rapport gjordes för 2 timmar och 10 minuter sedan, klockan 13:56 UTC
Prognos gäller från 29 kl. 15 UTC till 29 kl. 18 UTC
Vind 22 kt från nord/nordost i byarna ända upp till 35 kt
Sikt 10 km eller mer
Spridda moln på en höjd av 2000 ft
Temporärt
från 29 kl. 15 UTC till 29 kl. 18 UTC
Sikt: 6000 m
regnskurar

TAF: EGKA 291356Z 2915/2918 02022G35KT 9999 SCT020 TEMPO 2915/2918 6000 SHRA

Aktuella väderrapporter och prognoser från 4000 flygplatser (METAR- och TAF-rapporter).

De tillgängliga stationerna syns som gula och röda prickar på kartan.

För musen över prickarna för att se namnen på stationerna.

Klicka sedan för att få väderrapporter och prognoser.

För att ändra kartan: Klicka på de gröna knapparna med ett svart kors på för att zooma in; den gröna knappen med ett streck på för att zooma ut; eller på de gröna pilarna för angränsande kartor.


METAR-TAF: